createdAt,value
2019-04-01T00:00:32.919Z,100462.47
2019-04-01T00:03:01.709Z,100466.81
2019-04-01T00:05:30.512Z,100465.98
2019-04-01T00:07:59.472Z,100472.08
2019-04-01T00:10:28.229Z,100468.95
2019-04-01T00:12:56.989Z,100477.74
2019-04-01T00:15:25.828Z,100476.88
2019-04-01T00:17:54.708Z,100477.77
2019-04-01T00:20:23.468Z,100480.37
2019-04-01T00:22:52.476Z,100482.09
2019-04-01T00:25:21.269Z,100482.15
2019-04-01T00:27:50.011Z,100482.19
2019-04-01T00:30:18.869Z,100484.89
2019-04-01T00:32:47.668Z,100486.20
2019-04-01T00:35:16.428Z,100482.75
2019-04-01T00:37:45.269Z,100483.18
2019-04-01T00:40:14.268Z,100475.72
2019-04-01T00:42:47.591Z,100481.05
2019-04-01T00:45:18.159Z,100483.66
2019-04-01T00:47:46.908Z,100482.47
2019-04-01T00:50:16.709Z,100488.14
2019-04-01T00:52:45.548Z,100487.67
2019-04-01T00:55:14.349Z,100486.00
2019-04-01T00:57:43.108Z,100479.36
2019-04-01T01:00:13.269Z,100478.93
2019-04-01T01:02:42.034Z,100484.16
2019-04-01T01:07:40.963Z,100478.98
2019-04-01T01:10:10.108Z,100479.51
2019-04-01T01:12:38.837Z,100476.84
2019-04-01T01:15:08.021Z,100484.77
2019-04-01T01:17:36.752Z,100487.85
2019-04-01T01:20:08.581Z,100488.36
2019-04-01T01:22:37.369Z,100482.66
2019-04-01T01:25:06.291Z,100486.64
2019-04-01T01:27:35.028Z,100485.74
2019-04-01T01:30:05.227Z,100493.16
2019-04-01T01:32:33.962Z,100492.78
2019-04-01T01:35:02.682Z,100491.88
2019-04-01T01:37:31.477Z,100489.73
2019-04-01T01:40:00.374Z,100487.11
2019-04-01T01:42:29.188Z,100486.20
2019-04-01T01:44:57.942Z,100490.55
2019-04-01T01:47:26.677Z,100491.87
2019-04-01T01:49:55.412Z,100489.67
2019-04-01T01:52:24.217Z,100494.47
2019-04-01T01:54:52.937Z,100492.75
2019-04-01T01:57:21.678Z,100496.64
2019-04-01T01:59:50.454Z,100496.22
2019-04-01T02:02:19.191Z,100498.80
2019-04-01T02:04:47.917Z,100502.75
2019-04-01T02:07:16.696Z,100504.50
2019-04-01T02:09:45.427Z,100503.63
2019-04-01T02:12:14.157Z,100504.06
2019-04-01T02:14:42.943Z,100504.52
2019-04-01T02:17:11.684Z,100507.13
2019-04-01T02:19:40.406Z,100508.89
2019-04-01T02:22:09.187Z,100513.24
2019-04-01T02:24:37.918Z,100515.83
2019-04-01T02:27:06.647Z,100510.16
2019-04-01T02:29:35.437Z,100513.63
2019-04-01T02:32:04.182Z,100510.58
2019-04-01T02:34:32.916Z,100504.48
2019-04-01T02:37:01.692Z,100506.19
2019-04-01T02:39:30.433Z,100507.92
2019-04-01T02:41:59.158Z,100509.67
2019-04-01T02:44:27.932Z,100514.09
2019-04-01T02:46:56.680Z,100513.19
2019-04-01T02:49:25.384Z,100518.42
2019-04-01T02:51:54.177Z,100517.88
2019-04-01T02:54:22.895Z,100522.33
2019-04-01T02:56:51.619Z,100523.20
2019-04-01T02:59:20.411Z,100516.69
2019-04-01T03:01:49.149Z,100520.18
2019-04-01T03:04:17.887Z,100529.84
2019-04-01T03:06:46.674Z,100526.77
2019-04-01T03:09:15.420Z,100518.02
2019-04-01T03:11:44.133Z,100523.70
2019-04-01T03:14:12.927Z,100532.45
2019-04-01T03:16:41.674Z,100534.23
2019-04-01T03:19:10.418Z,100538.58
2019-04-01T03:21:39.203Z,100534.22
2019-04-01T03:24:07.919Z,100539.02
2019-04-01T03:26:36.663Z,100539.44
2019-04-01T03:29:05.467Z,100537.72
2019-04-01T03:31:34.189Z,100531.62
2019-04-01T03:34:02.977Z,100535.53
2019-04-01T03:36:31.824Z,100540.78
2019-04-01T03:39:00.549Z,100543.83
2019-04-01T03:41:29.277Z,100549.07
2019-04-01T03:43:58.068Z,100542.08
2019-04-01T03:46:26.787Z,100544.28
2019-04-01T03:48:55.520Z,100544.70
2019-04-01T03:51:24.301Z,100554.31
2019-04-01T03:53:53.036Z,100555.18
2019-04-01T03:56:21.769Z,100558.66
2019-04-01T03:58:50.582Z,100560.83
2019-04-01T04:01:19.274Z,100559.95
2019-04-01T04:03:48.023Z,100558.56
2019-04-01T04:06:16.884Z,100559.88
2019-04-01T04:08:45.604Z,100558.13
2019-04-01T04:11:14.384Z,100570.27
2019-04-01T04:13:43.193Z,100573.73
2019-04-01T04:16:11.954Z,100567.61
2019-04-01T04:18:40.694Z,100571.48
2019-04-01T04:21:09.482Z,100574.16
2019-04-01T04:23:38.203Z,100570.63
2019-04-01T04:26:06.943Z,100572.35
2019-04-01T04:28:35.737Z,100569.23
2019-04-01T04:31:04.505Z,100570.55
2019-04-01T04:33:33.248Z,100573.50
2019-04-01T04:36:02.033Z,100577.41
2019-04-01T04:38:30.762Z,100584.34
2019-04-01T04:40:59.481Z,100588.58
2019-04-01T04:43:28.292Z,100589.04
2019-04-01T04:45:57.013Z,100589.42
2019-04-01T04:48:25.752Z,100586.02
2019-04-01T04:50:54.551Z,100599.05
2019-04-01T04:53:23.287Z,100598.23
2019-04-01T04:55:52.038Z,100601.20
2019-04-01T04:58:20.826Z,100599.05
2019-04-01T05:00:49.558Z,100599.42
2019-04-01T05:03:18.309Z,100607.28
2019-04-01T05:05:47.091Z,100606.45
2019-04-01T05:08:15.831Z,100607.75
2019-04-01T05:10:44.563Z,100607.34
2019-04-01T05:13:13.419Z,100609.08
2019-04-01T05:15:42.216Z,100608.24
2019-04-01T05:18:10.957Z,100606.53
2019-04-01T05:20:40.841Z,100613.11
2019-04-01T05:23:10.087Z,100617.46
2019-04-01T05:25:40.008Z,100625.76
2019-04-01T05:28:11.888Z,100621.41
2019-04-01T05:30:41.502Z,100624.50
2019-04-01T05:33:13.554Z,100627.17
2019-04-01T05:35:42.306Z,100630.27
2019-04-01T05:38:11.114Z,100630.67
2019-04-01T05:40:39.846Z,100633.77
2019-04-01T05:43:08.619Z,100632.02
2019-04-01T05:45:37.387Z,100633.37
2019-04-01T05:48:06.138Z,100636.03
2019-04-01T05:50:34.937Z,100637.34
2019-04-01T05:53:03.686Z,100640.83
2019-04-01T05:55:32.726Z,100644.80
2019-04-01T05:58:01.591Z,100640.93
2019-04-01T06:00:37.838Z,100640.97
2019-04-01T06:03:06.697Z,100638.83
2019-04-01T06:05:35.440Z,100634.06
2019-04-01T06:08:04.668Z,100641.48
2019-04-01T06:10:33.464Z,100642.34
2019-04-01T06:13:02.215Z,100640.17
2019-04-01T06:15:30.938Z,100640.64
2019-04-01T06:17:59.730Z,100645.88
2019-04-01T06:20:28.460Z,100645.03
2019-04-01T06:22:57.221Z,100643.28
2019-04-01T06:25:25.991Z,100643.30
2019-04-01T06:27:54.742Z,100643.31
2019-04-01T06:30:23.461Z,100649.88
2019-04-01T06:32:52.261Z,100645.94
2019-04-01T06:35:21.016Z,100651.20
2019-04-01T06:37:49.775Z,100651.61
2019-04-01T06:40:18.669Z,100648.11
2019-04-01T06:42:48.096Z,100650.73
2019-04-01T06:45:16.838Z,100650.72
2019-04-01T06:47:45.627Z,100648.96
2019-04-01T06:50:14.492Z,100659.86
2019-04-01T06:52:43.240Z,100653.28
2019-04-01T06:55:12.016Z,100650.64
2019-04-01T06:57:40.771Z,100651.03
2019-04-01T07:00:09.777Z,100654.03
2019-04-01T07:02:38.586Z,100654.45
2019-04-01T07:05:07.508Z,100656.97
2019-04-01T07:07:36.341Z,100647.28
2019-04-01T07:10:05.527Z,100648.07
2019-04-01T07:12:34.269Z,100651.43
2019-04-01T07:15:02.992Z,100655.72
2019-04-01T07:17:32.177Z,100653.48
2019-04-01T07:20:00.951Z,100650.77
2019-04-01T07:22:29.697Z,100650.25
2019-04-01T07:24:58.509Z,100654.95
2019-04-01T07:27:27.251Z,100655.33
2019-04-01T07:29:55.987Z,100644.69
2019-04-01T07:32:24.781Z,100654.21
2019-04-01T07:34:53.511Z,100654.99
2019-04-01T07:37:22.251Z,100662.27
2019-04-01T07:39:51.217Z,100657.79
2019-04-01T07:42:19.952Z,100661.20
2019-04-01T07:44:48.800Z,100664.96
2019-04-01T07:47:17.732Z,100658.83
2019-04-01T07:49:46.490Z,100659.63
2019-04-01T07:52:15.421Z,100672.31
2019-04-01T07:54:44.226Z,100665.98
2019-04-01T07:57:12.956Z,100663.22
2019-04-01T07:59:41.697Z,100665.25
2019-04-01T08:02:10.491Z,100662.88
2019-04-01T08:04:39.243Z,100669.66
2019-04-01T08:07:07.991Z,100667.36
2019-04-01T08:09:36.782Z,100669.34
2019-04-01T08:12:05.528Z,100676.30
2019-04-01T08:14:34.250Z,100664.67
2019-04-01T08:17:03.036Z,100665.77
2019-04-01T08:19:31.776Z,100673.91
2019-04-01T08:22:00.811Z,100667.45
2019-04-01T08:24:29.613Z,100665.50
2019-04-01T08:26:58.336Z,100664.69
2019-04-01T08:29:30.438Z,100662.00
2019-04-01T08:31:57.571Z,100658.86
2019-04-01T08:34:26.393Z,100668.09
2019-04-01T08:36:55.131Z,100666.27
2019-04-01T08:39:23.917Z,100665.41
2019-04-01T08:41:52.676Z,100662.39
2019-04-01T08:44:21.408Z,100659.75
2019-04-01T08:46:50.171Z,100663.64
2019-04-01T08:49:18.949Z,100661.25
2019-04-01T08:51:47.716Z,100656.22
2019-04-01T08:54:16.439Z,100653.17
2019-04-01T08:56:45.179Z,100656.48
2019-04-01T08:59:14.041Z,100657.34
2019-04-01T09:01:42.783Z,100656.04
2019-04-01T09:04:11.574Z,100654.59
2019-04-01T09:06:40.333Z,100653.84
2019-04-01T09:09:09.216Z,100649.50
2019-04-01T09:11:38.612Z,100651.00
2019-04-01T09:14:07.572Z,100648.75
2019-04-01T09:16:36.527Z,100645.95
2019-04-01T09:19:05.366Z,100638.90
2019-04-01T09:21:34.156Z,100640.28
2019-04-01T09:24:02.921Z,100637.00
2019-04-01T09:26:31.656Z,100635.49
2019-04-01T09:29:00.421Z,100632.33
2019-04-01T09:31:29.151Z,100623.83
2019-04-01T09:33:57.942Z,100624.66
2019-04-01T09:36:26.690Z,100629.77
2019-04-01T09:38:55.428Z,100633.25
2019-04-01T09:41:24.212Z,100629.30
2019-04-01T09:43:52.948Z,100628.02
2019-04-01T09:46:21.695Z,100624.25
2019-04-01T09:48:50.485Z,100628.20
2019-04-01T09:51:19.222Z,100628.94
2019-04-01T09:53:47.968Z,100622.66
2019-04-01T09:56:16.763Z,100617.99
2019-04-01T09:58:45.518Z,100626.36
2019-04-01T10:01:14.371Z,100628.00
2019-04-01T10:03:43.152Z,100629.44
2019-04-01T10:06:11.891Z,100628.92
2019-04-01T10:08:42.662Z,100620.11
2019-04-01T10:11:12.808Z,100628.54
2019-04-01T10:13:41.791Z,100619.08
2019-04-01T10:16:10.498Z,100627.28
2019-04-01T10:18:39.296Z,100619.67
2019-04-01T10:21:08.026Z,100614.56
2019-04-01T10:23:36.756Z,100612.47
2019-04-01T10:26:05.578Z,100612.11
2019-04-01T10:28:34.336Z,100608.91
2019-04-01T10:31:03.241Z,100596.13
2019-04-01T10:33:32.128Z,100602.36
2019-04-01T10:36:00.882Z,100602.72
2019-04-01T10:38:29.629Z,100604.77
2019-04-01T10:40:58.444Z,100598.90
2019-04-01T10:43:27.331Z,100600.10
2019-04-01T10:45:56.066Z,100602.59
2019-04-01T10:48:24.934Z,100603.38
2019-04-01T10:50:54.173Z,100598.36
2019-04-01T10:53:23.800Z,100598.16
2019-04-01T10:55:52.658Z,100598.50
2019-04-01T10:58:21.422Z,100590.59
2019-04-01T11:00:50.160Z,100594.34
2019-04-01T11:03:19.131Z,100585.73
2019-04-01T11:05:47.986Z,100597.34
2019-04-01T11:08:16.715Z,100595.78
2019-04-01T11:10:45.492Z,100596.60
2019-04-01T11:13:14.267Z,100589.23
2019-04-01T11:15:43.002Z,100584.13
2019-04-01T11:18:12.179Z,100588.66
2019-04-01T11:20:41.216Z,100573.67
2019-04-01T11:23:09.945Z,100581.17
2019-04-01T11:25:38.751Z,100581.03
2019-04-01T11:28:07.495Z,100573.09
2019-04-01T11:30:37.107Z,100570.41
2019-04-01T11:33:07.876Z,100565.75
2019-04-01T11:35:36.715Z,100576.78
2019-04-01T11:38:05.523Z,100567.48
2019-04-01T11:40:34.328Z,100562.19
2019-04-01T11:43:05.093Z,100561.84
2019-04-01T11:45:33.691Z,100562.45
2019-04-01T11:48:02.560Z,100558.98
2019-04-01T11:50:31.398Z,100545.89
2019-04-01T11:53:00.179Z,100550.86
2019-04-01T11:55:28.976Z,100553.02
2019-04-01T11:57:57.713Z,100538.54
2019-04-01T12:00:26.471Z,100543.08
2019-04-01T12:02:55.275Z,100535.28
2019-04-01T12:05:24.017Z,100535.50
2019-04-01T12:07:52.787Z,100532.11
2019-04-01T12:10:21.576Z,100521.38
2019-04-01T12:12:50.323Z,100520.78
2019-04-01T12:15:19.059Z,100526.92
2019-04-01T12:17:47.856Z,100521.23
2019-04-01T12:20:16.576Z,100518.92
2019-04-01T12:22:46.169Z,100515.05
2019-04-01T12:25:15.221Z,100515.39
2019-04-01T12:27:45.114Z,100503.23
2019-04-01T12:30:14.292Z,100506.13
2019-04-01T12:32:43.072Z,100500.58
2019-04-01T12:35:13.020Z,100496.96
2019-04-01T12:37:41.774Z,100492.30
2019-04-01T12:40:10.617Z,100482.66
2019-04-01T12:42:39.446Z,100485.27
2019-04-01T12:45:08.318Z,100491.75
2019-04-01T12:47:37.093Z,100486.70
2019-04-01T12:50:06.998Z,100480.79
2019-04-01T12:52:35.708Z,100484.82
2019-04-01T12:55:06.532Z,100486.94
2019-04-01T12:57:35.301Z,100480.27
2019-04-01T13:00:06.336Z,100479.83
2019-04-01T13:02:35.181Z,100482.47
2019-04-01T13:05:04.676Z,100471.88
2019-04-01T13:07:33.421Z,100463.52
2019-04-01T13:10:02.236Z,100463.38
2019-04-01T13:12:31.014Z,100454.52
2019-04-01T13:14:59.777Z,100454.67
2019-04-01T13:17:28.601Z,100445.59
2019-04-01T13:19:57.438Z,100446.42
2019-04-01T13:22:26.172Z,100441.98
2019-04-01T13:24:54.986Z,100444.77
2019-04-01T13:27:23.724Z,100439.28
2019-04-01T13:29:52.906Z,100433.17
2019-04-01T13:32:21.821Z,100438.41
2019-04-01T13:34:50.567Z,100432.38
2019-04-01T13:37:19.301Z,100429.80
2019-04-01T13:39:48.076Z,100426.41
2019-04-01T13:42:16.842Z,100429.02
2019-04-01T13:44:45.558Z,100422.21
2019-04-01T13:47:14.357Z,100422.55
2019-04-01T13:49:43.092Z,100416.55
2019-04-01T13:52:11.923Z,100421.55
2019-04-01T13:54:41.680Z,100412.12
2019-04-01T13:57:10.571Z,100421.55
2019-04-01T13:59:48.951Z,100421.31
2019-04-01T14:02:09.831Z,100408.56
2019-04-01T14:04:39.999Z,100403.94
2019-04-01T14:07:09.110Z,100398.92
2019-04-01T14:09:37.896Z,100401.39
2019-04-01T14:12:06.669Z,100406.83
2019-04-01T14:14:35.414Z,100402.48
2019-04-01T14:17:04.294Z,100398.14
2019-04-01T14:19:33.073Z,100395.48
2019-04-01T14:22:01.806Z,100392.44
2019-04-01T14:24:30.611Z,100387.86
2019-04-01T14:26:59.371Z,100384.62
2019-04-01T14:29:28.120Z,100385.05
2019-04-01T14:32:13.196Z,100379.72
2019-04-01T14:34:43.274Z,100381.76
2019-04-01T14:37:12.451Z,100375.13
2019-04-01T14:39:41.324Z,100368.87
2019-04-01T14:42:10.073Z,100376.14
2019-04-01T14:44:38.880Z,100378.09
2019-04-01T14:47:09.165Z,100369.30
2019-04-01T14:49:38.101Z,100360.26
2019-04-01T14:52:06.886Z,100359.47
2019-04-01T14:54:35.646Z,100362.78
2019-04-01T14:57:05.937Z,100350.70
2019-04-01T14:59:34.728Z,100347.00
2019-04-01T15:02:03.813Z,100344.15
2019-04-01T15:04:32.802Z,100342.42
2019-04-01T15:07:01.589Z,100338.18
2019-04-01T15:09:30.354Z,100335.20
2019-04-01T15:11:59.106Z,100335.15
2019-04-01T15:14:27.928Z,100331.73
2019-04-01T15:16:56.683Z,100330.09
2019-04-01T15:19:27.042Z,100324.91
2019-04-01T15:21:55.902Z,100328.02
2019-04-01T15:24:24.633Z,100327.12
2019-04-01T15:26:53.378Z,100328.36
2019-04-01T15:29:22.183Z,100323.56
2019-04-01T15:31:50.942Z,100327.55
2019-04-01T15:34:19.904Z,100331.16
2019-04-01T15:36:48.673Z,100321.11
2019-04-01T15:39:17.511Z,100324.48
2019-04-01T15:41:46.262Z,100321.01
2019-04-01T15:44:15.146Z,100316.54
2019-04-01T15:46:44.084Z,100313.00
2019-04-01T15:49:12.841Z,100315.76
2019-04-01T15:51:41.661Z,100313.16
2019-04-01T15:54:10.518Z,100313.41
2019-04-01T15:56:41.853Z,100307.34
2019-04-01T15:59:09.921Z,100311.03
2019-04-01T16:01:38.734Z,100317.86
2019-04-01T16:04:08.503Z,100308.34
2019-04-01T16:06:37.471Z,100305.59
2019-04-01T16:09:07.122Z,100307.69
2019-04-01T16:11:35.877Z,100304.87
2019-04-01T16:14:04.772Z,100303.03
2019-04-01T16:16:33.517Z,100301.11
2019-04-01T16:19:02.257Z,100298.30
2019-04-01T16:21:31.544Z,100303.64
2019-04-01T16:24:00.388Z,100298.70
2019-04-01T16:26:29.127Z,100297.10
2019-04-01T16:28:57.917Z,100296.70
2019-04-01T16:31:26.671Z,100296.34
2019-04-01T16:33:55.532Z,100299.79
2019-04-01T16:36:24.361Z,100294.45
2019-04-01T16:38:53.101Z,100298.64
2019-04-01T16:41:21.846Z,100298.66
2019-04-01T16:43:50.656Z,100299.18
2019-04-01T16:46:19.406Z,100297.77
2019-04-01T16:48:48.157Z,100294.64
2019-04-01T16:51:16.917Z,100296.76
2019-04-01T16:53:45.777Z,100298.30
2019-04-01T16:56:14.626Z,100300.72
2019-04-01T16:58:43.451Z,100298.36
2019-04-01T17:01:12.192Z,100299.98
2019-04-01T17:03:41.043Z,100302.20
2019-04-01T17:06:09.913Z,100300.47
2019-04-01T17:08:39.292Z,100305.33
2019-04-01T17:11:08.328Z,100305.34
2019-04-01T17:13:37.127Z,100309.13
2019-04-01T17:16:06.208Z,100308.17
2019-04-01T17:18:35.550Z,100318.30
2019-04-01T17:21:05.031Z,100318.13
2019-04-01T17:23:34.219Z,100315.02
2019-04-01T17:26:03.278Z,100318.63
2019-04-01T17:28:32.066Z,100314.45
2019-04-01T17:31:00.931Z,100317.37
2019-04-01T17:33:29.771Z,100330.82
2019-04-01T17:35:58.779Z,100332.55
2019-04-01T17:38:27.827Z,100330.84
2019-04-01T17:40:56.723Z,100332.86
2019-04-01T17:43:25.635Z,100330.08
2019-04-01T17:45:54.402Z,100334.81
2019-04-01T17:48:23.953Z,100334.16
2019-04-01T17:50:54.344Z,100341.24
2019-04-01T17:53:23.179Z,100336.53
2019-04-01T17:55:52.124Z,100343.01
2019-04-01T17:58:22.002Z,100351.38
2019-04-01T18:00:53.142Z,100347.48
2019-04-01T18:03:21.992Z,100349.17
2019-04-01T18:05:50.900Z,100357.80
2019-04-01T18:08:19.648Z,100362.37
2019-04-01T18:10:48.893Z,100358.14
2019-04-01T18:13:19.221Z,100360.16
2019-04-01T18:15:47.983Z,100365.78
2019-04-01T18:18:26.788Z,100371.63
2019-04-01T18:20:47.272Z,100372.73
2019-04-01T18:23:16.021Z,100377.84
2019-04-01T18:25:44.784Z,100373.64
2019-04-01T18:28:13.612Z,100373.44
2019-04-01T18:30:42.376Z,100374.09
2019-04-01T18:33:12.564Z,100370.14
2019-04-01T18:35:44.629Z,100371.64
2019-04-01T18:38:11.862Z,100370.45
2019-04-01T18:40:40.608Z,100375.41
2019-04-01T18:43:09.558Z,100379.84
2019-04-01T18:45:38.335Z,100374.80
2019-04-01T18:48:07.175Z,100374.12
2019-04-01T18:50:36.042Z,100367.20
2019-04-01T18:53:04.961Z,100372.13
2019-04-01T18:55:34.077Z,100377.23
2019-04-01T18:58:03.051Z,100377.60
2019-04-01T19:00:32.237Z,100383.98
2019-04-01T19:03:01.152Z,100387.93
2019-04-01T19:05:30.044Z,100380.55
2019-04-01T19:07:59.051Z,100387.49
2019-04-01T19:10:27.885Z,100385.16
2019-04-01T19:13:05.794Z,100387.08
2019-04-01T19:15:28.145Z,100383.27
2019-04-01T19:17:57.646Z,100384.37
2019-04-01T19:20:30.136Z,100388.87
2019-04-01T19:22:57.269Z,100386.37
2019-04-01T19:25:26.277Z,100390.00
2019-04-01T19:27:55.081Z,100377.42
2019-04-01T19:30:24.133Z,100384.96
2019-04-01T19:32:52.936Z,100380.69
2019-04-01T19:35:21.779Z,100382.50
2019-04-01T19:37:50.572Z,100384.15
2019-04-01T19:40:20.651Z,100386.11
2019-04-01T19:42:49.713Z,100382.58
2019-04-01T19:45:18.577Z,100385.20
2019-04-01T19:47:47.443Z,100385.36
2019-04-01T19:50:18.329Z,100386.37
2019-04-01T19:52:46.872Z,100383.45
2019-04-01T19:55:15.632Z,100388.84
2019-04-01T19:57:44.372Z,100386.25
2019-04-01T20:00:26.603Z,100382.86
2019-04-01T20:02:43.917Z,100385.53
2019-04-01T20:05:12.664Z,100385.66
2019-04-01T20:07:41.633Z,100389.31
2019-04-01T20:10:12.104Z,100390.63
2019-04-01T20:12:41.209Z,100396.09
2019-04-01T20:15:12.130Z,100396.52
2019-04-01T20:17:41.343Z,100397.44
2019-04-01T20:20:14.280Z,100402.27
2019-04-01T20:22:41.562Z,100403.28
2019-04-01T20:25:10.640Z,100400.66
2019-04-01T20:27:39.382Z,100400.63
2019-04-01T20:30:09.878Z,100401.80
2019-04-01T20:32:38.671Z,100408.98
2019-04-01T20:35:22.312Z,100401.55
2019-04-01T20:37:39.996Z,100401.15
2019-04-01T20:40:09.157Z,100409.11
2019-04-01T20:42:38.008Z,100401.26
2019-04-01T20:45:12.346Z,100398.23
2019-04-01T20:47:41.231Z,100397.92
2019-04-01T20:50:11.736Z,100399.78
2019-04-01T20:52:41.251Z,100397.28
2019-04-01T20:55:10.391Z,100392.53
2019-04-01T20:57:39.217Z,100394.77
2019-04-01T21:00:09.962Z,100390.89
2019-04-01T21:02:38.941Z,100387.46
2019-04-01T21:05:08.867Z,100393.16
2019-04-01T21:07:37.714Z,100395.02
2019-04-01T21:10:07.916Z,100390.63
2019-04-01T21:12:37.327Z,100388.06
2019-04-01T21:15:08.201Z,100385.39
2019-04-01T21:17:37.001Z,100382.84
2019-04-01T21:20:07.344Z,100388.14
2019-04-01T21:22:36.892Z,100378.53
2019-04-01T21:25:07.388Z,100392.55
2019-04-01T21:27:36.103Z,100386.92
2019-04-01T21:30:08.242Z,100392.23
2019-04-01T21:32:37.031Z,100388.69
2019-04-01T21:35:06.962Z,100384.82
2019-04-01T21:37:35.736Z,100389.24
2019-04-01T21:40:07.095Z,100379.63
2019-04-01T21:42:35.822Z,100382.28
2019-04-01T21:45:06.586Z,100379.26
2019-04-01T21:47:35.504Z,100382.39
2019-04-01T21:50:06.433Z,100376.27
2019-04-01T21:52:35.644Z,100374.10
2019-04-01T21:55:07.867Z,100369.67
2019-04-01T21:57:35.786Z,100369.71
2019-04-01T22:00:10.407Z,100373.68
2019-04-01T22:02:39.201Z,100371.08
2019-04-01T22:05:10.175Z,100361.46
2019-04-01T22:07:38.815Z,100362.33
2019-04-01T22:10:07.902Z,100362.33
2019-04-01T22:12:36.628Z,100365.87
2019-04-01T22:15:06.058Z,100360.61
2019-04-01T22:17:34.838Z,100362.81
2019-04-01T22:20:04.892Z,100363.70
2019-04-01T22:22:33.618Z,100357.62
2019-04-01T22:25:02.419Z,100358.08
2019-04-01T22:27:31.147Z,100354.58
2019-04-01T22:29:59.881Z,100350.22
2019-04-01T22:32:28.672Z,100351.57
2019-04-01T22:34:57.407Z,100345.87
2019-04-01T22:37:27.590Z,100345.03
2019-04-01T22:39:56.606Z,100344.14
2019-04-01T22:42:26.250Z,100336.30
2019-04-01T22:44:55.937Z,100334.16
2019-04-01T22:47:24.718Z,100331.13
2019-04-01T22:49:53.453Z,100328.08
2019-04-01T22:52:22.211Z,100324.14
2019-04-01T22:54:50.972Z,100316.30
2019-04-01T22:57:19.719Z,100318.05
2019-04-01T22:59:49.160Z,100319.35
2019-04-01T23:02:18.099Z,100312.38
2019-04-01T23:04:46.813Z,100313.70
2019-04-01T23:07:15.576Z,100311.52
2019-04-01T23:09:44.377Z,100310.67
2019-04-01T23:12:13.121Z,100308.04
2019-04-01T23:14:41.851Z,100300.20
2019-04-01T23:17:10.649Z,100304.98
2019-04-01T23:19:39.405Z,100301.50
2019-04-01T23:22:08.150Z,100294.53
2019-04-01T23:24:36.931Z,100295.41
2019-04-01T23:27:05.671Z,100291.08
2019-04-01T23:29:34.460Z,100288.03
2019-04-01T23:32:03.241Z,100281.94
2019-04-01T23:34:31.967Z,100282.80
2019-04-01T23:37:00.706Z,100278.86
2019-04-01T23:39:29.498Z,100274.09
2019-04-01T23:41:58.427Z,100270.61
2019-04-01T23:44:28.030Z,100270.18
2019-04-01T23:46:56.816Z,100267.57
2019-04-01T23:49:25.567Z,100261.03
2019-04-01T23:51:54.408Z,100264.95
2019-04-01T23:54:23.156Z,100266.27
2019-04-01T23:56:51.886Z,100264.08
2019-04-01T23:59:20.671Z,100264.51
